Time;durP1;ratioP1;P1;durP2;ratioP2;P2;SDS_P1;SDS_P2;PMS_P1;PMS_P2;Temp;Humidity;BMP_temperature;BMP_pressure;BME280_temperature;BME280_humidity;BME280_pressure;Samples;Min_cycle;Max_cycle;Signal;HPM_P1;HPM_P2
2023/03/06 00:00:38;;;;;;;16.67;11.27;;;5.80;99.90;;;;;;5010524;28;20667;-66
2023/03/06 00:03:05;;;;;;;17.08;10.73;;;5.20;99.90;;;;;;5005926;28;20203;-68
2023/03/06 00:05:30;;;;;;;12.30;9.73;;;5.00;99.90;;;;;;5009316;28;20194;-66
2023/03/06 00:07:59;;;;;;;16.43;10.70;;;5.20;99.90;;;;;;5009470;28;20696;-65
2023/03/06 00:10:28;;;;;;;15.82;10.82;;;5.80;99.90;;;;;;5011603;28;20183;-66
2023/03/06 00:12:57;;;;;;;15.95;11.35;;;5.30;99.50;;;;;;5010808;28;20179;-66
2023/03/06 00:15:24;;;;;;;15.45;11.85;;;5.30;99.50;;;;;;5005315;28;20196;-66
2023/03/06 00:17:50;;;;;;;14.73;11.55;;;5.50;99.80;;;;;;5008947;28;20269;-68
2023/03/06 00:20:16;;;;;;;13.65;11.75;;;5.40;99.70;;;;;;5007023;28;20293;-66
2023/03/06 00:22:42;;;;;;;13.63;11.05;;;5.40;99.70;;;;;;5013084;28;20198;-66
2023/03/06 00:25:13;;;;;;;16.52;12.10;;;5.20;99.70;;;;;;5011131;28;20264;-66
2023/03/06 00:27:39;;;;;;;17.52;11.73;;;5.10;99.60;;;;;;5009700;28;20239;-66
2023/03/06 00:30:06;;;;;;;17.48;11.55;;;5.20;99.50;;;;;;5010440;28;20209;-66
2023/03/06 00:32:31;;;;;;;20.60;12.63;;;5.10;99.40;;;;;;5010061;28;20204;-66
2023/03/06 00:34:57;;;;;;;14.37;10.57;;;5.10;99.30;;;;;;5008602;28;20178;-66
2023/03/06 00:37:24;;;;;;;16.63;11.47;;;5.00;99.00;;;;;;5009551;28;21710;-66
2023/03/06 00:39:50;;;;;;;15.38;10.68;;;5.20;99.30;;;;;;5005987;28;20568;-66
2023/03/06 00:42:16;;;;;;;17.43;10.73;;;5.30;99.30;;;;;;5008963;28;20185;-66
2023/03/06 00:44:42;;;;;;;15.73;10.43;;;5.30;99.20;;;;;;5009860;28;20995;-66
2023/03/06 00:47:08;;;;;;;13.40;9.67;;;5.10;99.00;;;;;;5008243;28;20183;-67
2023/03/06 00:49:34;;;;;;;14.85;10.57;;;4.60;98.90;;;;;;5008031;28;20228;-66
2023/03/06 00:52:00;;;;;;;17.15;11.13;;;5.20;99.20;;;;;;5008318;28;20297;-66
2023/03/06 00:54:25;;;;;;;14.40;11.27;;;5.10;99.20;;;;;;5004055;28;20311;-67
2023/03/06 00:56:51;;;;;;;14.27;10.73;;;5.20;99.30;;;;;;5011617;28;20815;-66
2023/03/06 00:59:17;;;;;;;16.17;11.03;;;5.10;99.30;;;;;;5010827;28;20277;-66
2023/03/06 01:01:42;;;;;;;17.93;11.53;;;5.20;99.60;;;;;;5012218;28;20226;-66
2023/03/06 01:04:08;;;;;;;14.60;10.60;;;4.40;99.00;;;;;;5014622;28;20186;-66
2023/03/06 01:06:34;;;;;;;14.87;10.30;;;5.20;99.50;;;;;;5010685;28;20222;-66
2023/03/06 01:09:00;;;;;;;14.13;10.77;;;5.30;99.60;;;;;;5006600;28;20584;-66
2023/03/06 01:11:25;;;;;;;16.07;10.77;;;5.30;99.30;;;;;;5011472;28;20437;-68
2023/03/06 01:13:51;;;;;;;16.07;10.33;;;5.00;99.40;;;;;;5011850;28;20196;-66
2023/03/06 01:16:18;;;;;;;14.70;10.33;;;5.40;99.60;;;;;;5014407;28;20249;-66
2023/03/06 01:18:44;;;;;;;14.70;10.73;;;5.80;99.40;;;;;;5011148;28;20225;-66
2023/03/06 01:21:10;;;;;;;13.55;10.52;;;5.30;99.20;;;;;;5015349;28;20197;-66
2023/03/06 01:23:36;;;;;;;16.13;10.88;;;5.40;99.30;;;;;;5011080;28;20190;-66
2023/03/06 01:26:02;;;;;;;12.33;9.67;;;5.20;99.40;;;;;;5012393;28;20688;-66
2023/03/06 01:28:28;;;;;;;14.83;10.60;;;5.30;99.50;;;;;;5011522;28;20599;-65
2023/03/06 01:30:54;;;;;;;18.87;11.17;;;5.30;99.50;;;;;;5007108;28;20471;-66
2023/03/06 01:33:20;;;;;;;18.75;11.30;;;5.40;99.40;;;;;;5014484;28;20608;-68
2023/03/06 01:35:46;;;;;;;15.82;10.63;;;5.20;99.00;;;;;;5026393;28;20644;-68
2023/03/06 01:38:11;;;;;;;14.87;9.73;;;5.30;98.90;;;;;;5010544;28;20200;-67
2023/03/06 01:40:37;;;;;;;15.20;11.17;;;5.00;99.20;;;;;;5009220;28;20197;-68
2023/03/06 01:43:27;;;;;;;12.32;9.57;;;4.60;99.20;;;;;;5011096;28;20198;-67
2023/03/06 01:46:20;;;;;;;16.63;11.00;;;5.00;99.80;;;;;;5008447;28;20191;-68
2023/03/06 01:48:47;;;;;;;18.50;10.10;;;4.80;99.90;;;;;;5009683;28;20275;-68
2023/03/06 01:51:14;;;;;;;16.95;11.52;;;4.90;99.90;;;;;;5010851;28;20193;-65
2023/03/06 01:53:42;;;;;;;16.92;11.30;;;4.50;99.50;;;;;;5008313;28;20791;-67
2023/03/06 01:56:09;;;;;;;14.82;10.13;;;5.10;99.90;;;;;;5010663;28;20201;-68
2023/03/06 01:58:35;;;;;;;13.88;9.93;;;5.50;99.70;;;;;;5011991;28;20204;-68
2023/03/06 02:01:01;;;;;;;13.82;9.13;;;5.10;99.10;;;;;;5011257;28;20923;-66
2023/03/06 02:03:28;;;;;;;14.30;9.80;;;5.30;98.90;;;;;;5010960;28;20218;-67
2023/03/06 02:05:54;;;;;;;13.57;9.52;;;5.10;98.80;;;;;;5012032;28;20190;-68
2023/03/06 02:08:22;;;;;;;15.82;9.45;;;5.40;99.00;;;;;;5010047;28;20641;-67
2023/03/06 02:11:04;;;;;;;11.65;8.85;;;5.20;98.70;;;;;;5011529;28;20659;-67
2023/03/06 02:13:30;;;;;;;13.77;8.93;;;5.00;98.60;;;;;;5010235;28;20255;-67
2023/03/06 02:15:57;;;;;;;12.15;9.15;;;5.40;99.00;;;;;;5010478;28;20185;-68
2023/03/06 02:18:22;;;;;;;14.57;9.80;;;4.60;99.10;;;;;;5010418;28;20702;-68
2023/03/06 02:20:53;;;;;;;16.13;9.70;;;4.90;99.00;;;;;;5011991;28;20255;-67
2023/03/06 02:23:45;;;;;;;12.35;8.98;;;5.20;99.10;;;;;;5004962;28;20647;-67
2023/03/06 02:26:12;;;;;;;12.80;8.95;;;5.10;99.10;;;;;;5010676;28;20252;-65
2023/03/06 02:28:38;;;;;;;15.20;9.18;;;5.00;99.20;;;;;;5009602;28;20702;-66
2023/03/06 02:31:04;;;;;;;12.40;8.80;;;4.90;98.50;;;;;;5010944;28;20190;-66
2023/03/06 02:33:30;;;;;;;11.85;8.73;;;5.10;98.50;;;;;;5010699;28;20190;-66
2023/03/06 02:36:05;;;;;;;14.23;8.90;;;4.40;97.90;;;;;;5007810;28;20693;-66
2023/03/06 02:38:39;;;;;;;11.73;9.57;;;5.00;98.20;;;;;;5011689;28;20250;-66
2023/03/06 02:41:08;;;;;;;13.10;9.52;;;4.90;98.40;;;;;;5009883;28;20188;-66
2023/03/06 02:43:38;;;;;;;11.35;8.45;;;5.40;98.60;;;;;;5010317;28;20240;-66
2023/03/06 02:46:04;;;;;;;11.63;8.38;;;5.00;98.50;;;;;;5011179;28;20190;-66
2023/03/06 02:48:30;;;;;;;13.25;9.07;;;4.90;98.20;;;;;;5008843;28;20235;-66
2023/03/06 02:50:55;;;;;;;14.47;8.93;;;4.90;98.30;;;;;;5010461;28;20186;-66
2023/03/06 02:53:21;;;;;;;12.57;9.77;;;4.60;98.50;;;;;;5014094;28;20199;-66
2023/03/06 02:55:48;;;;;;;12.27;9.55;;;4.60;98.90;;;;;;5008096;28;20187;-66
2023/03/06 02:58:13;;;;;;;12.98;9.05;;;4.80;99.00;;;;;;5011580;28;20185;-66
2023/03/06 03:00:39;;;;;;;11.30;8.07;;;5.30;99.60;;;;;;5010262;28;20197;-66
2023/03/06 03:03:06;;;;;;;11.70;9.33;;;4.70;99.60;;;;;;5007779;28;20615;-66
2023/03/06 03:05:31;;;;;;;12.30;8.43;;;4.60;99.60;;;;;;5011016;28;20444;-66
2023/03/06 03:07:57;;;;;;;14.20;9.83;;;4.50;99.60;;;;;;5010984;28;20236;-66
2023/03/06 03:10:23;;;;;;;12.97;9.20;;;5.10;99.90;;;;;;5006616;28;20441;-66
2023/03/06 03:12:49;;;;;;;14.93;10.07;;;4.90;99.90;;;;;;5009976;28;20221;-66
2023/03/06 03:15:15;;;;;;;11.70;8.77;;;5.10;99.90;;;;;;5011690;28;20186;-66
2023/03/06 03:17:41;;;;;;;13.97;9.53;;;4.60;99.90;;;;;;5010353;28;20730;-67
2023/03/06 03:20:11;;;;;;;15.83;9.37;;;4.20;99.90;;;;;;5009136;28;20458;-66
2023/03/06 03:22:37;;;;;;;12.02;9.05;;;4.40;99.90;;;;;;5010941;28;20185;-66
2023/03/06 03:25:04;;;;;;;12.53;9.03;;;4.50;99.90;;;;;;5007654;28;20260;-66
2023/03/06 03:27:29;;;;;;;14.00;9.00;;;4.50;99.90;;;;;;5008245;28;20830;-66
2023/03/06 03:29:59;;;;;;;13.60;9.33;;;4.60;99.90;;;;;;5008290;28;20216;-66
2023/03/06 03:32:25;;;;;;;13.40;8.98;;;4.80;99.90;;;;;;5007178;28;20189;-66
2023/03/06 03:34:51;;;;;;;13.00;9.70;;;4.50;99.90;;;;;;5016212;28;20645;-66
2023/03/06 03:37:17;;;;;;;14.20;9.27;;;3.90;99.90;;;;;;5011163;28;20190;-66
2023/03/06 03:39:42;;;;;;;11.98;9.18;;;4.40;99.90;;;;;;5007583;28;20841;-65
2023/03/06 03:42:08;;;;;;;13.80;9.00;;;3.90;99.90;;;;;;5012296;28;20239;-66
2023/03/06 03:44:34;;;;;;;13.20;9.37;;;4.50;99.80;;;;;;5010874;28;20191;-66
2023/03/06 03:47:00;;;;;;;11.93;8.18;;;4.50;99.90;;;;;;5009007;28;20195;-67
2023/03/06 03:49:26;;;;;;;11.97;9.27;;;4.60;99.90;;;;;;5003038;28;20221;-66
2023/03/06 03:51:51;;;;;;;14.60;9.50;;;4.50;99.90;;;;;;5010154;28;20444;-66
2023/03/06 03:54:17;;;;;;;12.03;8.67;;;4.50;99.90;;;;;;5010572;28;20229;-67
2023/03/06 03:56:43;;;;;;;11.23;9.10;;;4.60;99.90;;;;;;5010696;28;20300;-66
2023/03/06 03:59:09;;;;;;;11.18;8.85;;;4.50;99.50;;;;;;5009645;28;21173;-66
2023/03/06 04:01:35;;;;;;;12.30;8.20;;;4.10;99.50;;;;;;5007676;28;20189;-66
2023/03/06 04:04:01;;;;;;;11.03;8.03;;;3.90;99.30;;;;;;5021705;28;20194;-66
2023/03/06 04:06:27;;;;;;;13.00;9.10;;;4.30;99.60;;;;;;5008752;28;20539;-66
2023/03/06 04:08:52;;;;;;;11.63;9.60;;;4.90;99.90;;;;;;5008096;28;20220;-66
2023/03/06 04:11:18;;;;;;;9.50;7.93;;;4.10;99.20;;;;;;5011690;28;20193;-66
2023/03/06 04:13:44;;;;;;;14.43;8.73;;;4.60;99.30;;;;;;5009871;28;20213;-66
2023/03/06 04:16:09;;;;;;;11.50;8.87;;;4.50;99.40;;;;;;5009593;28;20229;-66
2023/03/06 04:18:35;;;;;;;10.50;8.03;;;4.60;99.50;;;;;;5007736;28;20691;-66
2023/03/06 04:21:00;;;;;;;9.67;7.30;;;3.70;99.30;;;;;;5005068;28;20197;-66
2023/03/06 04:23:26;;;;;;;9.27;7.33;;;4.50;99.70;;;;;;5006120;28;20225;-66
2023/03/06 04:25:52;;;;;;;10.77;9.13;;;3.90;99.90;;;;;;5007466;28;20198;-66
2023/03/06 04:28:19;;;;;;;13.10;8.93;;;4.60;99.90;;;;;;5011809;28;20500;-66
2023/03/06 04:30:44;;;;;;;13.27;8.18;;;4.50;99.90;;;;;;5010508;28;20196;-66
2023/03/06 04:33:10;;;;;;;9.40;7.60;;;4.30;99.50;;;;;;5012619;28;20197;-66
2023/03/06 04:35:36;;;;;;;11.77;8.10;;;4.30;99.50;;;;;;5026840;28;20197;-66
2023/03/06 04:38:02;;;;;;;9.47;7.47;;;4.40;99.00;;;;;;5012047;28;20273;-66
2023/03/06 04:40:30;;;;;;;11.97;7.97;;;4.00;99.30;;;;;;5011886;28;20711;-66
2023/03/06 04:42:58;;;;;;;9.68;7.80;;;4.60;98.90;;;;;;5012380;28;20496;-66
2023/03/06 04:45:25;;;;;;;12.57;7.25;;;4.60;99.20;;;;;;5012711;28;20197;-66
2023/03/06 04:47:50;;;;;;;9.50;7.88;;;4.70;99.20;;;;;;5014577;28;20293;-66
2023/03/06 04:50:17;;;;;;;10.33;7.37;;;4.70;98.70;;;;;;5013567;28;20288;-67
2023/03/06 04:52:42;;;;;;;9.30;7.10;;;4.40;98.50;;;;;;5012166;28;20280;-67
2023/03/06 04:55:10;;;;;;;12.47;7.80;;;5.00;99.30;;;;;;5012223;28;20260;-67
2023/03/06 04:57:41;;;;;;;11.18;8.73;;;4.60;98.90;;;;;;5013754;28;20221;-67
2023/03/06 05:00:16;;;;;;;11.52;8.80;;;4.50;99.00;;;;;;5014038;28;20619;-67
2023/03/06 05:02:45;;;;;;;11.18;8.55;;;4.80;99.10;;;;;;5007544;28;20193;-67
2023/03/06 05:05:11;;;;;;;9.68;7.80;;;4.60;99.10;;;;;;5011579;28;20256;-67
2023/03/06 05:07:38;;;;;;;11.45;8.27;;;4.40;98.60;;;;;;5010411;28;20245;-67
2023/03/06 05:10:05;;;;;;;9.10;7.65;;;4.60;99.20;;;;;;5011293;28;20244;-67
2023/03/06 05:12:30;;;;;;;12.10;7.80;;;4.80;99.00;;;;;;5011756;28;20242;-67
2023/03/06 05:14:57;;;;;;;11.33;7.60;;;5.20;99.40;;;;;;5010776;28;20182;-67
2023/03/06 05:17:22;;;;;;;10.43;7.90;;;4.80;99.10;;;;;;5012082;28;20187;-67
2023/03/06 05:19:48;;;;;;;8.20;7.13;;;4.60;98.90;;;;;;5011288;28;20219;-67
2023/03/06 05:22:13;;;;;;;10.87;8.07;;;4.60;98.80;;;;;;5009054;28;20292;-67
2023/03/06 05:24:39;;;;;;;9.93;8.23;;;4.60;99.30;;;;;;5010242;28;20282;-67
2023/03/06 05:27:05;;;;;;;9.00;7.27;;;4.80;99.70;;;;;;5011827;28;20250;-67
2023/03/06 05:29:30;;;;;;;8.90;7.60;;;4.80;99.70;;;;;;5013312;28;20227;-67
2023/03/06 05:31:56;;;;;;;10.73;7.90;;;4.60;99.20;;;;;;5011961;28;20271;-67
2023/03/06 05:34:21;;;;;;;9.90;8.03;;;4.60;99.10;;;;;;5007952;28;20203;-67
2023/03/06 05:36:47;;;;;;;11.20;8.57;;;4.70;99.40;;;;;;5009320;28;20193;-66
2023/03/06 05:39:13;;;;;;;9.87;7.40;;;4.60;99.30;;;;;;5005680;28;20600;-66
2023/03/06 05:41:38;;;;;;;11.27;7.80;;;4.30;99.70;;;;;;5009097;28;20669;-67
2023/03/06 05:44:04;;;;;;;9.60;7.73;;;4.30;99.60;;;;;;5008505;28;20664;-67
2023/03/06 05:46:30;;;;;;;10.50;8.30;;;4.40;99.40;;;;;;5009324;28;20187;-67
2023/03/06 05:48:56;;;;;;;9.87;6.97;;;4.50;99.20;;;;;;5006472;28;20313;-67
2023/03/06 05:51:23;;;;;;;13.25;8.38;;;4.40;99.20;;;;;;5007353;28;20188;-67
2023/03/06 05:53:49;;;;;;;13.43;8.05;;;4.50;99.30;;;;;;5009977;28;20666;-67
2023/03/06 05:56:15;;;;;;;9.48;7.45;;;4.20;99.20;;;;;;5007647;28;20188;-67
2023/03/06 05:58:40;;;;;;;8.63;7.32;;;4.40;99.80;;;;;;5013349;28;20221;-66
2023/03/06 06:01:14;;;;;;;15.27;8.37;;;4.50;99.70;;;;;;5010592;28;20190;-66
2023/03/06 06:03:40;;;;;;;9.77;7.78;;;4.40;99.80;;;;;;5006865;28;20197;-66
2023/03/06 06:06:07;;;;;;;9.50;7.30;;;4.50;99.80;;;;;;5008773;28;20180;-66
2023/03/06 06:08:33;;;;;;;12.38;8.05;;;4.30;99.90;;;;;;5005910;28;20482;-66
2023/03/06 06:10:59;;;;;;;11.63;9.17;;;4.30;99.90;;;;;;5006109;28;20185;-66
2023/03/06 06:13:25;;;;;;;13.77;8.35;;;4.30;99.90;;;;;;5011384;28;20513;-66
2023/03/06 06:15:50;;;;;;;12.00;7.90;;;4.30;99.90;;;;;;5006985;28;20260;-67
2023/03/06 06:18:16;;;;;;;11.67;7.60;;;4.30;99.90;;;;;;5013403;28;20247;-67
2023/03/06 06:20:42;;;;;;;12.07;8.40;;;3.60;99.70;;;;;;5005251;28;20776;-67
2023/03/06 06:23:10;;;;;;;11.03;7.57;;;4.50;99.90;;;;;;5023379;28;20186;-67
2023/03/06 06:25:36;;;;;;;11.40;7.88;;;4.20;99.90;;;;;;5010897;28;20201;-67
2023/03/06 06:28:02;;;;;;;8.95;7.55;;;4.40;99.90;;;;;;5005763;28;20193;-67
2023/03/06 06:30:28;;;;;;;11.63;8.02;;;4.30;99.90;;;;;;5007006;28;20243;-67
2023/03/06 06:32:54;;;;;;;11.63;8.55;;;4.40;99.90;;;;;;5009594;28;20237;-67
2023/03/06 06:35:19;;;;;;;8.53;7.03;;;4.40;99.90;;;;;;5009517;28;20189;-67
2023/03/06 06:37:45;;;;;;;12.23;8.13;;;3.90;99.90;;;;;;5023289;28;20604;-67
2023/03/06 06:40:11;;;;;;;12.73;8.63;;;4.70;99.90;;;;;;5006575;28;20205;-67
2023/03/06 06:42:36;;;;;;;9.97;7.73;;;4.70;99.90;;;;;;5009818;28;20197;-68
2023/03/06 06:45:04;;;;;;;13.47;8.73;;;4.10;99.60;;;;;;5008725;28;20470;-67
2023/03/06 06:47:30;;;;;;;10.75;8.00;;;4.30;99.50;;;;;;5007135;28;20204;-69
2023/03/06 06:49:56;;;;;;;10.50;7.82;;;4.00;99.10;;;;;;5004357;28;20665;-68
2023/03/06 06:52:23;;;;;;;10.57;7.40;;;4.70;98.80;;;;;;5005316;28;20247;-69
2023/03/06 06:54:49;;;;;;;10.90;8.00;;;4.60;98.90;;;;;;5006805;28;20494;-68
2023/03/06 06:57:15;;;;;;;12.10;8.60;;;4.60;99.10;;;;;;5001099;28;20640;-67
2023/03/06 06:59:41;;;;;;;13.65;9.65;;;5.00;99.60;;;;;;5007101;28;20217;-69
2023/03/06 07:02:07;;;;;;;11.70;8.20;;;4.70;99.40;;;;;;5009519;28;20236;-70
2023/03/06 07:04:32;;;;;;;11.03;8.70;;;5.10;99.60;;;;;;5009040;28;21086;-66
2023/03/06 07:06:58;;;;;;;10.47;8.27;;;4.80;99.70;;;;;;5012462;28;20463;-67
2023/03/06 07:09:24;;;;;;;14.77;8.63;;;4.90;99.40;;;;;;5011064;28;20641;-67
2023/03/06 07:11:49;;;;;;;12.20;9.93;;;4.80;99.60;;;;;;5011223;28;20186;-68
2023/03/06 07:14:15;;;;;;;11.13;8.87;;;4.90;99.20;;;;;;5009496;28;20189;-65
2023/03/06 07:16:41;;;;;;;9.70;7.97;;;5.00;99.50;;;;;;5013132;28;20184;-65
2023/03/06 07:19:07;;;;;;;10.80;8.23;;;4.40;99.00;;;;;;5006301;28;20221;-65
2023/03/06 07:21:33;;;;;;;12.20;9.50;;;4.90;99.30;;;;;;5007319;28;20453;-67
2023/03/06 07:23:59;;;;;;;9.27;8.27;;;4.70;99.00;;;;;;5006902;28;20970;-66
2023/03/06 07:26:26;;;;;;;14.30;8.90;;;4.90;98.90;;;;;;5002516;28;20222;-66
2023/03/06 07:28:52;;;;;;;13.00;8.88;;;5.10;98.60;;;;;;5007223;28;20222;-66
2023/03/06 07:31:20;;;;;;;12.38;8.70;;;5.10;98.30;;;;;;5003177;28;20182;-65
2023/03/06 07:33:51;;;;;;;12.32;7.97;;;5.20;98.50;;;;;;5007596;28;20552;-67
2023/03/06 07:36:17;;;;;;;10.82;8.73;;;5.10;98.20;;;;;;5006171;28;20178;-67
2023/03/06 07:38:42;;;;;;;10.10;8.88;;;5.30;97.90;;;;;;5002956;28;20696;-69
2023/03/06 07:41:12;;;;;;;11.40;7.97;;;5.40;98.10;;;;;;5007441;28;20290;-70
2023/03/06 07:43:42;;;;;;;12.40;9.43;;;5.70;97.80;;;;;;5005742;28;20194;-70
2023/03/06 07:46:09;;;;;;;11.88;8.00;;;5.70;97.90;;;;;;4999317;28;20191;-68
2023/03/06 07:48:37;;;;;;;10.13;7.80;;;5.10;97.40;;;;;;5009081;28;20217;-67
2023/03/06 07:51:12;;;;;;;15.25;9.80;;;5.60;97.30;;;;;;5005477;28;20187;-68
2023/03/06 07:53:37;;;;;;;10.20;7.63;;;6.20;97.30;;;;;;5002824;28;20603;-71
2023/03/06 07:56:07;;;;;;;12.20;8.23;;;5.70;97.00;;;;;;5007541;28;20178;-67
2023/03/06 07:58:34;;;;;;;11.38;8.40;;;5.80;96.30;;;;;;5008064;28;20214;-69
2023/03/06 08:01:04;;;;;;;11.30;7.82;;;5.90;96.70;;;;;;5007460;28;20189;-67
2023/03/06 08:03:30;;;;;;;9.27;7.38;;;6.10;96.40;;;;;;5022187;28;20197;-67
2023/03/06 08:06:04;;;;;;;10.27;7.53;;;6.20;96.00;;;;;;5006654;28;20187;-68
2023/03/06 08:08:30;;;;;;;8.75;6.78;;;6.60;95.90;;;;;;5009484;28;20310;-70
2023/03/06 08:10:56;;;;;;;8.73;7.20;;;6.50;95.60;;;;;;5006851;28;20183;-73
2023/03/06 08:13:21;;;;;;;10.37;7.77;;;6.60;95.30;;;;;;5013153;28;20198;-71
2023/03/06 08:15:48;;;;;;;12.57;7.77;;;6.70;95.30;;;;;;5009552;28;20316;-71
2023/03/06 08:18:13;;;;;;;9.43;7.55;;;6.40;94.00;;;;;;5011631;28;20187;-69
2023/03/06 08:20:39;;;;;;;9.00;7.07;;;6.80;94.40;;;;;;5011555;28;20197;-69
2023/03/06 08:23:05;;;;;;;9.23;6.90;;;6.20;94.20;;;;;;5011995;28;20190;-72
2023/03/06 08:25:30;;;;;;;7.83;6.20;;;6.70;94.40;;;;;;5012148;28;20222;-72
2023/03/06 08:27:56;;;;;;;14.27;7.93;;;6.70;94.40;;;;;;5012087;28;20187;-71
2023/03/06 08:30:21;;;;;;;17.43;7.23;;;6.60;94.40;;;;;;5010704;28;20214;-72
2023/03/06 08:32:47;;;;;;;7.30;5.90;;;6.90;94.30;;;;;;5006685;28;20183;-71
2023/03/06 08:35:13;;;;;;;8.90;7.63;;;6.90;94.10;;;;;;5010997;28;20179;-69
2023/03/06 08:37:38;;;;;;;7.37;5.00;;;6.60;93.50;;;;;;5011316;28;20175;-71
2023/03/06 08:40:05;;;;;;;7.37;6.03;;;7.00;93.50;;;;;;5009691;28;20280;-68
2023/03/06 08:42:31;;;;;;;7.15;6.00;;;7.00;93.30;;;;;;5009879;28;20191;-68
2023/03/06 08:44:56;;;;;;;6.90;5.80;;;6.60;92.70;;;;;;5007441;28;20180;-68
2023/03/06 08:47:22;;;;;;;8.13;5.70;;;7.00;92.90;;;;;;5008905;28;20207;-69
2023/03/06 08:49:47;;;;;;;7.60;5.13;;;7.10;93.00;;;;;;5010397;28;20233;-69
2023/03/06 08:52:15;;;;;;;8.80;5.80;;;7.10;92.60;;;;;;5010532;28;20190;-69
2023/03/06 08:54:41;;;;;;;9.45;5.65;;;7.30;92.20;;;;;;5011144;28;20580;-68
2023/03/06 08:57:08;;;;;;;7.60;5.67;;;7.50;91.90;;;;;;5009192;28;20186;-69
2023/03/06 08:59:34;;;;;;;8.10;6.00;;;7.90;92.00;;;;;;5008560;28;20221;-69
2023/03/06 09:02:00;;;;;;;8.75;5.95;;;7.90;91.20;;;;;;5012437;28;20187;-68
2023/03/06 09:04:30;;;;;;;7.07;5.45;;;7.80;90.90;;;;;;5011108;28;20206;-71
2023/03/06 09:06:55;;;;;;;6.65;5.63;;;8.00;91.20;;;;;;5008750;28;20187;-70
2023/03/06 09:09:21;;;;;;;9.10;6.57;;;7.80;91.30;;;;;;5008332;28;20230;-71
2023/03/06 09:11:47;;;;;;;8.80;6.07;;;7.90;91.10;;;;;;5010534;28;20183;-66
2023/03/06 09:14:13;;;;;;;7.17;5.70;;;8.00;91.00;;;;;;5006904;28;20536;-65
2023/03/06 09:16:39;;;;;;;6.97;4.97;;;8.00;90.70;;;;;;5008627;28;20187;-66
2023/03/06 09:19:04;;;;;;;8.43;5.50;;;7.40;90.50;;;;;;5009554;28;20874;-67
2023/03/06 09:21:30;;;;;;;7.20;5.67;;;7.90;90.80;;;;;;5005819;28;20186;-67
2023/03/06 09:23:56;;;;;;;6.43;5.57;;;7.10;90.90;;;;;;5009142;28;20195;-69
2023/03/06 09:26:22;;;;;;;7.03;5.90;;;7.40;91.20;;;;;;5009714;28;20613;-72
2023/03/06 09:28:47;;;;;;;6.90;5.40;;;7.80;91.40;;;;;;5009269;28;20579;-70
2023/03/06 09:31:16;;;;;;;6.20;5.27;;;7.40;91.10;;;;;;5010259;28;20190;-67
2023/03/06 09:33:41;;;;;;;8.02;6.55;;;7.50;91.20;;;;;;5008095;28;20285;-66
2023/03/06 09:36:12;;;;;;;7.17;5.47;;;7.30;91.40;;;;;;5008561;28;20183;-69
2023/03/06 09:38:38;;;;;;;7.28;5.90;;;7.40;91.80;;;;;;5005570;28;20206;-66
2023/03/06 09:41:12;;;;;;;7.77;5.00;;;6.90;91.70;;;;;;5009285;28;20217;-66
2023/03/06 09:43:40;;;;;;;5.95;5.00;;;7.60;91.80;;;;;;5007407;28;20258;-67
2023/03/06 09:46:31;;;;;;;9.43;6.28;;;7.30;91.60;;;;;;5008848;28;20695;-66
2023/03/06 09:49:00;;;;;;;6.57;5.75;;;7.50;91.70;;;;;;5005036;28;20628;-66
2023/03/06 09:51:49;;;;;;;9.00;6.07;;;8.00;92.10;;;;;;5006107;28;20270;-67
2023/03/06 09:54:15;;;;;;;7.50;6.00;;;7.50;92.00;;;;;;5007977;28;20194;-67
2023/03/06 09:56:47;;;;;;;8.25;5.20;;;7.70;92.10;;;;;;5009116;28;20200;-66
2023/03/06 09:59:22;;;;;;;7.72;5.90;;;7.30;91.90;;;;;;5007199;28;20215;-68
2023/03/06 10:01:54;;;;;;;7.35;5.38;;;7.40;92.00;;;;;;5008296;28;20221;-68
2023/03/06 10:04:40;;;;;;;6.90;5.82;;;7.70;92.00;;;;;;5007002;28;21007;-68
2023/03/06 10:07:17;;;;;;;8.10;5.55;;;7.60;91.50;;;;;;5004006;28;20285;-66
2023/03/06 10:10:03;;;;;;;7.65;5.78;;;7.90;91.50;;;;;;5005381;28;20280;-67
2023/03/06 10:12:37;;;;;;;6.35;4.75;;;7.90;91.20;;;;;;5004757;28;20178;-70
2023/03/06 10:15:17;;;;;;;6.65;5.55;;;7.70;90.90;;;;;;5019293;28;20185;-69
2023/03/06 10:17:43;;;;;;;6.38;4.97;;;8.10;91.50;;;;;;5003500;28;20278;-67
2023/03/06 10:20:26;;;;;;;7.20;5.28;;;7.40;91.10;;;;;;5007264;28;21371;-68
2023/03/06 10:23:25;;;;;;;8.43;5.60;;;8.10;91.80;;;;;;5001498;28;20707;-68
2023/03/06 10:26:01;;;;;;;5.57;4.93;;;8.00;91.60;;;;;;5004989;28;20553;-68
2023/03/06 10:28:39;;;;;;;7.75;5.75;;;7.60;91.60;;;;;;5006885;28;20214;-69
2023/03/06 10:31:26;;;;;;;7.47;5.72;;;7.80;91.60;;;;;;5009530;28;20555;-69
2023/03/06 10:33:58;;;;;;;6.68;4.85;;;7.70;91.40;;;;;;5005517;28;20278;-69
2023/03/06 10:36:26;;;;;;;8.20;5.43;;;7.90;91.80;;;;;;5012117;28;20756;-70
2023/03/06 10:38:53;;;;;;;27.73;9.20;;;8.00;91.20;;;;;;5006094;28;20207;-69
2023/03/06 10:41:27;;;;;;;7.10;5.85;;;8.00;91.60;;;;;;5006181;28;20767;-69
2023/03/06 10:43:58;;;;;;;6.18;5.57;;;7.80;91.20;;;;;;5006831;28;20194;-69
2023/03/06 10:46:38;;;;;;;5.90;5.15;;;7.70;91.30;;;;;;5006157;28;20381;-68
2023/03/06 10:49:20;;;;;;;6.63;5.40;;;7.60;91.50;;;;;;5005484;28;20241;-68
2023/03/06 10:52:14;;;;;;;6.63;5.30;;;7.50;91.20;;;;;;5008015;28;20669;-68
2023/03/06 10:54:42;;;;;;;5.78;5.00;;;7.60;91.00;;;;;;4997538;28;20796;-68
2023/03/06 10:57:29;;;;;;;8.50;6.00;;;7.50;90.90;;;;;;5001923;28;20551;-66
2023/03/06 11:00:07;;;;;;;6.78;6.00;;;7.40;91.40;;;;;;5008080;28;20648;-67
2023/03/06 11:02:36;;;;;;;7.15;5.78;;;7.30;91.60;;;;;;5005718;28;20213;-67
2023/03/06 11:05:03;;;;;;;7.35;5.07;;;7.40;91.80;;;;;;5009302;28;20194;-67
2023/03/06 11:07:31;;;;;;;7.28;5.47;;;7.50;91.70;;;;;;5007847;28;20194;-67
2023/03/06 11:09:57;;;;;;;6.80;5.60;;;7.50;91.50;;;;;;5008358;28;20211;-67
2023/03/06 11:12:27;;;;;;;6.17;5.57;;;7.60;91.20;;;;;;5004583;28;20198;-66
2023/03/06 11:15:17;;;;;;;6.90;5.25;;;7.60;91.20;;;;;;5009025;28;20182;-67
2023/03/06 11:18:03;;;;;;;6.72;5.78;;;7.40;91.20;;;;;;5007411;28;20321;-66
2023/03/06 11:20:45;;;;;;;6.28;5.18;;;7.60;91.10;;;;;;5005606;28;20197;-67
2023/03/06 11:23:17;;;;;;;7.45;5.78;;;7.90;90.60;;;;;;5006416;28;20640;-67
2023/03/06 11:26:12;;;;;;;7.00;5.35;;;8.10;90.50;;;;;;5002005;28;20294;-68
2023/03/06 11:28:44;;;;;;;6.93;5.95;;;8.10;90.40;;;;;;5005477;28;20242;-67
2023/03/06 11:31:12;;;;;;;10.10;6.15;;;8.40;89.80;;;;;;5008604;28;20265;-67
2023/03/06 11:33:53;;;;;;;8.57;5.35;;;8.30;89.10;;;;;;5004848;28;20191;-67
2023/03/06 11:36:48;;;;;;;6.38;5.75;;;8.60;88.50;;;;;;5008624;28;20561;-66
2023/03/06 11:39:29;;;;;;;6.15;5.55;;;8.70;88.70;;;;;;5004192;28;20217;-67
2023/03/06 11:42:01;;;;;;;8.15;5.72;;;8.40;88.60;;;;;;5037373;28;20182;-67
2023/03/06 11:45:00;;;;;;;10.00;6.57;;;8.70;88.90;;;;;;5008800;28;20225;-67
2023/03/06 11:47:48;;;;;;;8.02;5.90;;;8.50;88.40;;;;;;5021500;28;20561;-68
2023/03/06 11:50:20;;;;;;;6.97;5.50;;;8.60;88.60;;;;;;5004338;28;20318;-67
2023/03/06 11:53:19;;;;;;;7.35;5.65;;;8.70;88.60;;;;;;5005336;28;20187;-66
2023/03/06 11:56:06;;;;;;;7.88;6.25;;;9.10;88.00;;;;;;5004548;28;20183;-67
2023/03/06 11:59:12;;;;;;;8.68;6.10;;;9.20;86.90;;;;;;5000466;28;20212;-69
2023/03/06 12:01:46;;;;;;;7.75;6.10;;;9.10;85.50;;;;;;5005924;28;20191;-69
2023/03/06 12:04:43;;;;;;;9.30;6.60;;;8.80;84.00;;;;;;5001740;28;20207;-70
2023/03/06 12:07:56;;;;;;;7.32;6.35;;;9.20;83.80;;;;;;5005427;28;20192;-69
2023/03/06 12:10:34;;;;;;;7.50;5.80;;;9.20;83.30;;;;;;4963501;28;20232;-68
2023/03/06 12:13:34;;;;;;;6.68;5.97;;;9.30;82.60;;;;;;4999694;28;20215;-69
2023/03/06 12:16:26;;;;;;;7.72;6.63;;;9.40;82.00;;;;;;5007282;28;20191;-69
2023/03/06 12:19:10;;;;;;;6.65;5.85;;;9.50;81.20;;;;;;4991881;28;20212;-68
2023/03/06 12:21:43;;;;;;;8.52;6.55;;;9.40;81.90;;;;;;5006507;28;20243;-68
2023/03/06 12:24:26;;;;;;;8.73;5.47;;;9.70;82.20;;;;;;5005319;28;20192;-66
2023/03/06 12:27:13;;;;;;;7.05;5.53;;;9.40;81.30;;;;;;4996045;28;20543;-69
2023/03/06 12:30:17;;;;;;;5.90;5.30;;;9.20;81.40;;;;;;5006384;28;20207;-70
2023/03/06 12:33:31;;;;;;;7.10;5.85;;;9.30;81.80;;;;;;5006707;28;20216;-69
2023/03/06 12:36:18;;;;;;;8.82;5.50;;;9.50;81.00;;;;;;5000319;28;22692;-70
2023/03/06 12:39:10;;;;;;;9.05;7.30;;;9.10;81.30;;;;;;5002223;28;20230;-71
2023/03/06 12:41:45;;;;;;;7.68;5.93;;;9.10;81.40;;;;;;5008174;28;20239;-71
2023/03/06 12:44:40;;;;;;;6.63;5.93;;;9.00;80.80;;;;;;5004948;28;20184;-70
2023/03/06 12:47:13;;;;;;;8.95;5.90;;;9.00;81.60;;;;;;5006573;28;20199;-68
2023/03/06 12:49:44;;;;;;;7.43;6.10;;;9.00;81.50;;;;;;5002854;28;20307;-70
2023/03/06 12:52:24;;;;;;;10.80;5.32;;;8.80;82.50;;;;;;5008004;28;20258;-67
2023/03/06 12:54:50;;;;;;;6.88;5.70;;;8.90;81.60;;;;;;5008136;28;20291;-68
2023/03/06 12:57:16;;;;;;;7.25;5.32;;;8.90;81.90;;;;;;5010682;28;20203;-70
2023/03/06 12:59:47;;;;;;;8.07;5.23;;;9.20;82.40;;;;;;5009478;28;20439;-69
2023/03/06 13:02:13;;;;;;;6.90;5.55;;;9.30;82.20;;;;;;5009361;28;20183;-70
2023/03/06 13:05:11;;;;;;;8.60;6.87;;;8.80;82.50;;;;;;5007549;28;20615;-70